Time;durP1;ratioP1;P1;durP2;ratioP2;P2;SDS_P1;SDS_P2;PMS_P1;PMS_P2;Temp;Humidity;BMP_temperature;BMP_pressure;BME280_temperature;BME280_humidity;BME280_pressure;Samples;Min_cycle;Max_cycle;Signal;HPM_P1;HPM_P2
2022/08/10 00:00:30;;;;;;;16.45;10.18;;;23.40;99.90;;;;;;5050506;28;20270;-78
2022/08/10 00:03:00;;;;;;;19.27;10.45;;;23.40;99.90;;;;;;5071603;23;20729;-78
2022/08/10 00:05:27;;;;;;;15.25;9.60;;;23.50;99.90;;;;;;5047651;28;20193;-78
2022/08/10 00:07:55;;;;;;;13.98;9.70;;;23.50;99.90;;;;;;5071075;28;20187;-77
2022/08/10 00:10:25;;;;;;;16.85;9.77;;;23.50;99.90;;;;;;5051383;28;20207;-78
2022/08/10 00:12:52;;;;;;;14.07;10.35;;;23.50;99.90;;;;;;5066415;28;20980;-78
2022/08/10 00:15:22;;;;;;;15.50;10.05;;;23.30;99.90;;;;;;5066807;28;20187;-78
2022/08/10 00:17:49;;;;;;;14.77;10.05;;;23.40;99.90;;;;;;5049454;28;20180;-77
2022/08/10 00:20:16;;;;;;;13.45;9.70;;;23.40;99.90;;;;;;5050048;28;20214;-78
2022/08/10 00:22:42;;;;;;;14.93;9.93;;;23.40;99.90;;;;;;5058184;28;20220;-78
2022/08/10 00:25:09;;;;;;;15.25;9.82;;;23.40;99.90;;;;;;5083391;28;20727;-78
2022/08/10 00:27:35;;;;;;;17.95;11.35;;;23.40;99.90;;;;;;5081777;28;20651;-78
2022/08/10 00:30:05;;;;;;;13.95;10.55;;;23.40;99.90;;;;;;5071269;28;20266;-78
2022/08/10 00:32:32;;;;;;;19.10;11.20;;;23.40;99.90;;;;;;5070651;28;20190;-77
2022/08/10 00:34:58;;;;;;;15.52;10.25;;;23.50;99.90;;;;;;5068898;28;20802;-77
2022/08/10 00:37:25;;;;;;;14.75;10.23;;;23.50;99.90;;;;;;5069413;28;20824;-78
2022/08/10 00:39:51;;;;;;;20.90;10.77;;;23.50;99.90;;;;;;5086432;28;20187;-78
2022/08/10 00:42:18;;;;;;;21.70;12.00;;;23.50;99.90;;;;;;5075497;28;20194;-78
2022/08/10 00:44:52;;;;;;;16.13;10.10;;;23.50;99.90;;;;;;5077627;28;20190;-77
2022/08/10 00:47:19;;;;;;;17.77;10.90;;;23.50;99.90;;;;;;5069264;28;20954;-77
2022/08/10 00:49:47;;;;;;;15.25;9.90;;;23.50;99.90;;;;;;5069154;28;20349;-78
2022/08/10 00:52:15;;;;;;;17.73;11.30;;;23.40;99.90;;;;;;5070755;28;20215;-77
2022/08/10 00:54:43;;;;;;;16.35;10.10;;;23.50;99.90;;;;;;5069517;28;20626;-78
2022/08/10 00:57:12;;;;;;;12.95;10.48;;;23.40;99.90;;;;;;5070722;28;20193;-78
2022/08/10 00:59:38;;;;;;;17.30;11.35;;;23.40;99.90;;;;;;5082222;28;20180;-78
2022/08/10 01:02:05;;;;;;;17.02;10.52;;;23.40;99.90;;;;;;5068479;28;20528;-78
2022/08/10 01:04:32;;;;;;;18.85;10.48;;;23.30;99.90;;;;;;5069991;28;20547;-78
2022/08/10 01:07:30;;;;;;;16.23;10.45;;;23.30;99.90;;;;;;5085448;28;20302;-77
2022/08/10 01:10:40;;;;;;;16.45;9.88;;;23.30;99.90;;;;;;5052142;28;20187;-78
2022/08/10 01:13:30;;;;;;;21.15;11.02;;;23.40;99.90;;;;;;5068146;28;20214;-77
2022/08/10 01:16:13;;;;;;;19.52;10.68;;;23.30;99.90;;;;;;5069298;28;20709;-78
2022/08/10 01:19:07;;;;;;;17.02;10.27;;;23.40;99.90;;;;;;5050356;28;20520;-78
2022/08/10 01:22:07;;;;;;;17.35;11.00;;;23.40;99.90;;;;;;5070723;28;20651;-77
2022/08/10 01:25:30;;;;;;;15.70;9.65;;;23.40;99.90;;;;;;5089806;28;20187;-77
2022/08/10 01:28:23;;;;;;;13.73;9.82;;;23.30;99.90;;;;;;5057984;28;20196;-78
2022/08/10 01:30:57;;;;;;;15.95;10.55;;;23.30;99.90;;;;;;5069187;28;20235;-78
2022/08/10 01:33:47;;;;;;;14.57;10.23;;;23.30;99.90;;;;;;5062886;28;20210;-78
2022/08/10 01:36:26;;;;;;;20.95;10.88;;;23.30;99.90;;;;;;5072141;28;20203;-78
2022/08/10 01:38:56;;;;;;;17.27;9.85;;;23.30;99.90;;;;;;5054587;28;20230;-78
2022/08/10 01:41:30;;;;;;;18.05;10.93;;;23.30;99.90;;;;;;5088093;28;20186;-77
2022/08/10 01:44:15;;;;;;;16.30;10.40;;;23.30;99.90;;;;;;5072504;28;20293;-78
2022/08/10 01:46:49;;;;;;;18.20;10.35;;;23.30;99.90;;;;;;5072212;28;20659;-78
2022/08/10 01:49:20;;;;;;;15.85;10.13;;;23.30;99.90;;;;;;5053724;28;20191;-78
2022/08/10 01:51:55;;;;;;;20.65;10.25;;;23.20;99.90;;;;;;5073497;28;20240;-78
2022/08/10 01:54:27;;;;;;;12.05;9.45;;;23.30;99.90;;;;;;5071811;28;20178;-78
2022/08/10 01:56:57;;;;;;;17.25;10.48;;;23.30;99.90;;;;;;5072085;28;20194;-78
2022/08/10 01:59:33;;;;;;;22.10;10.30;;;23.30;99.90;;;;;;5072234;28;20210;-78
2022/08/10 02:02:05;;;;;;;14.80;9.23;;;23.30;99.90;;;;;;5071083;28;20191;-78
2022/08/10 02:04:37;;;;;;;17.02;10.68;;;23.40;99.90;;;;;;5057678;28;20201;-78
2022/08/10 02:07:08;;;;;;;12.77;9.27;;;23.30;99.90;;;;;;5073554;28;20190;-78
2022/08/10 02:09:41;;;;;;;16.80;10.82;;;23.30;99.90;;;;;;5073102;28;20193;-78
2022/08/10 02:12:13;;;;;;;16.23;9.55;;;23.30;99.90;;;;;;5072516;28;20252;-78
2022/08/10 02:15:03;;;;;;;17.13;9.88;;;23.30;99.90;;;;;;5067929;28;20190;-78
2022/08/10 02:17:40;;;;;;;15.40;9.95;;;23.30;99.90;;;;;;5073213;28;20266;-78
2022/08/10 02:20:14;;;;;;;14.88;10.52;;;23.30;99.90;;;;;;5071258;28;20266;-78
2022/08/10 02:22:44;;;;;;;19.60;10.63;;;23.20;99.90;;;;;;5071568;28;20248;-78
2022/08/10 02:25:15;;;;;;;20.65;10.63;;;23.20;99.90;;;;;;5085095;28;20179;-78
2022/08/10 02:27:42;;;;;;;16.80;9.73;;;23.20;99.90;;;;;;5066992;28;20190;-78
2022/08/10 02:30:12;;;;;;;16.35;10.52;;;23.20;99.90;;;;;;5068657;28;20193;-78
2022/08/10 02:32:40;;;;;;;15.60;10.00;;;23.20;99.90;;;;;;5053269;28;20294;-78
2022/08/10 02:35:15;;;;;;;17.75;9.82;;;23.20;99.90;;;;;;5071248;28;20175;-77
2022/08/10 02:37:46;;;;;;;16.05;10.23;;;23.20;99.90;;;;;;5051079;28;20182;-78
2022/08/10 02:40:14;;;;;;;23.15;10.55;;;23.20;99.90;;;;;;5040699;28;20188;-78
2022/08/10 02:43:16;;;;;;;17.02;10.13;;;23.10;99.90;;;;;;5083536;28;20278;-77
2022/08/10 02:45:48;;;;;;;19.10;10.93;;;23.10;99.90;;;;;;5050952;28;20191;-78
2022/08/10 02:48:44;;;;;;;19.05;10.77;;;23.10;99.90;;;;;;5054882;28;20680;-77
2022/08/10 02:51:19;;;;;;;17.50;10.07;;;23.10;99.90;;;;;;5082302;28;20191;-77
2022/08/10 02:53:49;;;;;;;17.42;10.40;;;23.10;99.90;;;;;;5072063;28;20171;-78
2022/08/10 02:56:34;;;;;;;18.95;11.05;;;23.10;99.90;;;;;;5069378;28;20179;-78
2022/08/10 02:59:17;;;;;;;16.60;10.45;;;23.10;99.90;;;;;;5063895;28;20316;-77
2022/08/10 03:01:49;;;;;;;18.83;10.88;;;23.10;99.90;;;;;;5070594;28;20562;-78
2022/08/10 03:04:31;;;;;;;18.45;11.13;;;23.10;99.90;;;;;;5069910;28;20178;-77
2022/08/10 03:07:06;;;;;;;17.92;10.60;;;23.00;99.90;;;;;;5070342;28;20513;-78
2022/08/10 03:09:38;;;;;;;18.30;10.90;;;23.00;99.90;;;;;;5068433;28;20182;-78
2022/08/10 03:12:10;;;;;;;18.67;10.90;;;23.00;99.90;;;;;;5067163;28;20238;-77
2022/08/10 03:14:39;;;;;;;14.40;10.50;;;23.00;99.90;;;;;;5071824;28;20206;-78
2022/08/10 03:17:09;;;;;;;19.65;11.80;;;23.00;99.90;;;;;;5053537;28;20578;-77
2022/08/10 03:19:40;;;;;;;20.17;11.15;;;23.00;99.90;;;;;;5068323;28;20269;-77
2022/08/10 03:22:08;;;;;;;15.95;10.77;;;23.00;99.90;;;;;;5070936;28;20210;-77
2022/08/10 03:24:37;;;;;;;20.02;11.45;;;23.00;99.90;;;;;;5066608;28;20178;-77
2022/08/10 03:27:04;;;;;;;21.27;11.20;;;23.00;99.90;;;;;;5068209;28;20289;-77
2022/08/10 03:29:32;;;;;;;16.85;10.70;;;23.00;99.90;;;;;;5066852;28;20201;-78
2022/08/10 03:32:01;;;;;;;18.10;10.95;;;23.00;99.90;;;;;;5066515;28;20202;-77
2022/08/10 03:34:31;;;;;;;16.48;11.13;;;23.00;99.90;;;;;;5051993;28;20182;-78
2022/08/10 03:36:57;;;;;;;15.45;11.10;;;23.00;99.90;;;;;;5046527;28;20252;-77
2022/08/10 03:39:24;;;;;;;21.38;10.80;;;23.00;99.90;;;;;;5071221;28;20519;-77
2022/08/10 03:41:57;;;;;;;16.13;10.68;;;23.00;99.90;;;;;;5067331;28;20194;-78
2022/08/10 03:44:35;;;;;;;17.27;11.05;;;23.10;99.90;;;;;;5070186;28;20187;-77
2022/08/10 03:47:05;;;;;;;24.70;11.73;;;23.10;99.90;;;;;;5072534;28;20651;-77
2022/08/10 03:49:37;;;;;;;15.57;10.15;;;23.00;99.90;;;;;;5068799;28;20198;-77
2022/08/10 03:52:05;;;;;;;17.85;10.07;;;23.10;99.90;;;;;;5077878;28;20337;-77
2022/08/10 03:54:33;;;;;;;16.70;10.35;;;23.10;99.90;;;;;;5067823;28;20244;-78
2022/08/10 03:57:01;;;;;;;18.55;11.45;;;23.10;99.90;;;;;;5068535;28;20194;-77
2022/08/10 03:59:30;;;;;;;17.80;10.85;;;23.10;99.90;;;;;;5069409;28;20250;-76
2022/08/10 04:01:57;;;;;;;17.73;11.07;;;23.10;99.90;;;;;;5068946;28;20278;-77
2022/08/10 04:04:24;;;;;;;17.03;10.40;;;23.10;99.90;;;;;;5071035;28;20260;-77
2022/08/10 04:06:57;;;;;;;18.98;10.82;;;23.10;99.90;;;;;;5069688;28;20248;-78
2022/08/10 04:09:32;;;;;;;17.48;10.70;;;23.10;99.90;;;;;;5070855;28;20375;-78
2022/08/10 04:11:59;;;;;;;15.27;10.73;;;23.10;99.90;;;;;;5042073;28;20671;-78
2022/08/10 04:14:25;;;;;;;23.92;11.70;;;23.20;99.90;;;;;;5058399;28;20206;-78
2022/08/10 04:16:51;;;;;;;21.10;10.32;;;23.10;99.90;;;;;;5069341;28;20192;-77
2022/08/10 04:19:20;;;;;;;17.85;9.70;;;23.20;99.90;;;;;;5069286;28;20533;-78
2022/08/10 04:22:14;;;;;;;18.13;10.30;;;23.20;99.90;;;;;;5070605;28;20273;-78
2022/08/10 04:24:47;;;;;;;18.02;10.73;;;23.20;99.90;;;;;;5068055;28;20648;-77
2022/08/10 04:27:14;;;;;;;14.60;9.80;;;23.20;99.90;;;;;;5069493;28;20202;-77
2022/08/10 04:29:42;;;;;;;15.90;9.68;;;23.20;99.90;;;;;;5077868;28;20186;-77
2022/08/10 04:32:11;;;;;;;17.65;10.02;;;23.20;99.90;;;;;;5067391;28;20206;-78
2022/08/10 04:34:43;;;;;;;17.05;9.27;;;23.30;99.90;;;;;;5064773;28;20191;-78
2022/08/10 04:37:11;;;;;;;14.60;10.00;;;23.30;99.90;;;;;;5050262;28;20190;-77
2022/08/10 04:39:39;;;;;;;14.45;9.75;;;23.30;99.90;;;;;;5068355;28;20225;-77
2022/08/10 04:42:06;;;;;;;14.45;9.55;;;23.40;99.90;;;;;;5068400;28;20240;-77
2022/08/10 04:44:33;;;;;;;18.83;10.20;;;23.40;99.90;;;;;;5068589;28;20760;-78
2022/08/10 04:46:59;;;;;;;14.48;9.23;;;23.50;99.90;;;;;;5084367;28;20194;-77
2022/08/10 04:49:26;;;;;;;21.55;10.23;;;23.60;99.90;;;;;;5068962;28;20303;-77
2022/08/10 04:51:52;;;;;;;15.32;9.70;;;23.60;99.90;;;;;;5085220;28;20227;-78
2022/08/10 04:54:19;;;;;;;16.42;9.52;;;23.70;99.90;;;;;;5052161;28;20202;-77
2022/08/10 04:56:45;;;;;;;12.15;8.50;;;23.80;99.90;;;;;;5071132;28;20264;-77
2022/08/10 04:59:11;;;;;;;12.85;9.05;;;23.80;99.90;;;;;;5055115;28;20203;-78
2022/08/10 05:01:39;;;;;;;23.05;8.98;;;23.90;99.90;;;;;;5089800;28;20193;-78
2022/08/10 05:04:06;;;;;;;12.50;8.45;;;24.00;99.90;;;;;;5090576;28;20198;-78
2022/08/10 05:06:32;;;;;;;14.57;8.30;;;24.00;99.90;;;;;;5087224;28;20198;-77
2022/08/10 05:08:59;;;;;;;14.05;8.45;;;24.10;99.90;;;;;;5072334;28;20544;-78
2022/08/10 05:11:25;;;;;;;11.68;8.00;;;24.10;99.90;;;;;;5072979;28;20302;-78
2022/08/10 05:13:52;;;;;;;16.02;8.50;;;24.20;99.90;;;;;;5089574;28;20239;-78
2022/08/10 05:16:18;;;;;;;17.02;7.90;;;24.20;99.90;;;;;;5086812;28;20262;-78
2022/08/10 05:18:44;;;;;;;15.77;7.82;;;24.30;99.90;;;;;;5055324;28;20535;-77
2022/08/10 05:21:11;;;;;;;11.98;7.65;;;24.30;99.90;;;;;;5071637;28;20175;-77
2022/08/10 05:23:37;;;;;;;15.80;8.10;;;24.30;99.90;;;;;;5072369;28;20267;-77
2022/08/10 05:26:04;;;;;;;15.23;7.90;;;24.40;99.90;;;;;;5072397;28;20179;-77
2022/08/10 05:28:30;;;;;;;15.55;7.53;;;24.50;99.90;;;;;;5070460;28;20183;-77
2022/08/10 05:31:00;;;;;;;14.52;7.07;;;24.50;99.90;;;;;;5054035;28;20208;-77
2022/08/10 05:33:26;;;;;;;10.55;7.13;;;24.60;99.90;;;;;;5071771;28;20276;-78
2022/08/10 05:35:55;;;;;;;17.40;7.55;;;24.70;99.90;;;;;;5071914;28;20190;-77
2022/08/10 05:38:25;;;;;;;13.40;7.50;;;24.70;99.90;;;;;;5072117;28;20639;-77
2022/08/10 05:40:53;;;;;;;13.10;7.13;;;24.70;99.90;;;;;;5048039;28;20348;-77
2022/08/10 05:43:21;;;;;;;13.52;7.18;;;24.80;99.90;;;;;;5070088;28;20175;-77
2022/08/10 05:45:50;;;;;;;15.48;7.35;;;24.90;99.90;;;;;;5054369;28;20183;-77
2022/08/10 05:48:22;;;;;;;16.58;7.15;;;24.90;99.90;;;;;;5070457;28;22522;-77
2022/08/10 05:50:48;;;;;;;12.75;6.97;;;25.00;99.90;;;;;;5071136;28;20274;-78
2022/08/10 05:53:15;;;;;;;13.55;7.03;;;25.00;99.90;;;;;;5053722;28;20802;-77
2022/08/10 05:55:42;;;;;;;13.35;6.40;;;25.00;99.90;;;;;;5065267;28;20214;-78
2022/08/10 05:58:09;;;;;;;16.20;7.20;;;25.10;99.90;;;;;;5070406;28;20285;-77
2022/08/10 06:00:41;;;;;;;14.30;6.88;;;25.10;99.90;;;;;;5075542;28;20577;-77
2022/08/10 06:03:10;;;;;;;15.57;6.75;;;25.20;99.90;;;;;;5067607;28;20203;-77
2022/08/10 06:05:42;;;;;;;15.23;7.15;;;25.30;99.90;;;;;;5087061;28;20194;-77
2022/08/10 06:08:27;;;;;;;14.55;6.68;;;25.30;99.90;;;;;;5071204;28;20588;-78
2022/08/10 06:10:56;;;;;;;11.20;6.32;;;25.40;99.90;;;;;;5065300;28;20221;-77
2022/08/10 06:16:14;;;;;;;11.98;6.65;;;25.50;99.90;;;;;;5067217;28;20226;-78
2022/08/10 06:18:42;;;;;;;14.85;6.60;;;25.60;99.90;;;;;;5050581;28;21172;-75
2022/08/10 06:21:10;;;;;;;11.57;6.70;;;25.70;99.90;;;;;;5066136;28;20796;-77
2022/08/10 06:23:38;;;;;;;16.02;6.47;;;25.70;99.90;;;;;;5069118;28;20198;-77
2022/08/10 06:26:07;;;;;;;11.48;6.30;;;25.70;99.90;;;;;;5087254;28;20191;-75
2022/08/10 06:28:39;;;;;;;11.15;5.70;;;26.00;99.90;;;;;;5069874;28;20205;-78
2022/08/10 06:31:08;;;;;;;12.73;6.30;;;26.00;99.90;;;;;;5071170;28;20182;-76
2022/08/10 06:33:41;;;;;;;10.52;5.60;;;26.10;99.90;;;;;;5070209;28;20211;-75
2022/08/10 06:36:12;;;;;;;11.07;5.80;;;26.20;99.90;;;;;;5088630;28;20190;-75
2022/08/10 06:38:41;;;;;;;9.55;5.85;;;26.30;99.90;;;;;;5071699;28;20240;-76
2022/08/10 06:41:21;;;;;;;11.73;5.93;;;26.30;99.90;;;;;;5070223;28;20724;-75
2022/08/10 06:43:59;;;;;;;11.32;5.80;;;26.40;99.90;;;;;;5046547;28;20186;-78
2022/08/10 06:46:28;;;;;;;9.80;5.22;;;26.40;99.90;;;;;;5069416;28;20193;-75
2022/08/10 06:49:00;;;;;;;14.05;5.82;;;26.50;99.90;;;;;;5066547;28;20262;-75
2022/08/10 06:51:32;;;;;;;11.32;5.93;;;26.60;99.90;;;;;;5083314;28;20175;-76
2022/08/10 06:54:06;;;;;;;10.23;6.13;;;26.60;99.90;;;;;;5086840;28;20187;-76
2022/08/10 06:56:39;;;;;;;7.65;5.53;;;26.50;99.90;;;;;;5085321;28;20197;-75
2022/08/10 06:59:29;;;;;;;12.18;5.43;;;26.60;99.90;;;;;;5070068;28;20186;-75
2022/08/10 07:02:08;;;;;;;8.48;5.05;;;26.70;99.90;;;;;;5068480;28;20260;-76
2022/08/10 07:05:10;;;;;;;10.25;5.80;;;26.80;99.90;;;;;;5067691;28;20249;-76
2022/08/10 07:07:42;;;;;;;12.85;6.03;;;26.80;99.90;;;;;;5036772;28;20190;-75
2022/08/10 07:10:11;;;;;;;10.63;5.55;;;26.90;99.90;;;;;;5067443;28;20187;-76
2022/08/10 07:12:40;;;;;;;11.38;5.72;;;26.90;99.90;;;;;;5069470;28;20203;-76
2022/08/10 07:15:11;;;;;;;15.70;5.72;;;26.90;99.90;;;;;;5070152;28;20191;-75
2022/08/10 07:17:39;;;;;;;14.73;6.05;;;26.90;99.90;;;;;;5071894;28;20175;-76
2022/08/10 07:20:08;;;;;;;11.52;5.35;;;26.90;99.90;;;;;;5062713;28;20199;-76
2022/08/10 07:22:38;;;;;;;8.68;5.32;;;27.10;99.90;;;;;;5067648;28;20202;-75
2022/08/10 07:25:07;;;;;;;14.48;6.28;;;27.10;99.90;;;;;;5086244;28;20253;-76
2022/08/10 07:27:36;;;;;;;9.07;5.53;;;27.20;99.90;;;;;;5071675;28;20603;-76
2022/08/10 07:30:03;;;;;;;10.07;5.18;;;27.30;99.90;;;;;;5069110;28;20205;-75
2022/08/10 07:32:33;;;;;;;8.93;5.15;;;27.40;99.90;;;;;;5049863;28;20210;-75
2022/08/10 07:35:03;;;;;;;12.15;5.43;;;27.40;99.90;;;;;;5066549;28;20183;-75
2022/08/10 07:37:35;;;;;;;9.98;5.38;;;27.60;99.90;;;;;;5051249;28;20187;-76
2022/08/10 07:40:09;;;;;;;9.40;4.55;;;27.60;99.90;;;;;;5081149;28;20190;-75
2022/08/10 07:42:38;;;;;;;6.82;4.60;;;27.80;99.90;;;;;;5066318;28;20774;-76
2022/08/10 07:45:06;;;;;;;9.35;5.00;;;27.90;99.90;;;;;;5078598;28;20195;-76
2022/08/10 07:48:10;;;;;;;10.15;4.82;;;27.90;99.90;;;;;;5059814;28;20202;-75
2022/08/10 07:50:40;;;;;;;12.57;4.78;;;28.00;99.90;;;;;;5068961;28;20186;-78
2022/08/10 07:53:22;;;;;;;7.60;4.43;;;28.00;99.90;;;;;;5082415;28;20217;-78
2022/08/10 07:55:51;;;;;;;7.13;4.70;;;28.10;99.90;;;;;;5051838;28;20179;-77
2022/08/10 07:58:24;;;;;;;8.27;4.70;;;28.20;99.90;;;;;;5079275;28;20232;-76
2022/08/10 08:00:55;;;;;;;10.30;4.60;;;28.30;99.90;;;;;;5085318;28;20265;-75
2022/08/10 08:03:24;;;;;;;6.70;4.55;;;28.40;99.90;;;;;;5083320;28;20201;-75
2022/08/10 08:05:53;;;;;;;8.98;4.70;;;28.50;99.90;;;;;;5083981;28;20647;-75
2022/08/10 08:08:26;;;;;;;8.95;4.72;;;28.50;99.90;;;;;;5067746;28;20560;-75
2022/08/10 08:10:58;;;;;;;8.48;5.05;;;28.50;99.90;;;;;;5051953;28;20193;-75
2022/08/10 08:13:28;;;;;;;7.88;4.50;;;28.40;99.90;;;;;;5066572;28;20705;-75
2022/08/10 08:15:57;;;;;;;12.45;5.13;;;28.60;99.90;;;;;;5069878;28;20182;-76
2022/08/10 08:18:26;;;;;;;8.40;4.93;;;28.60;99.90;;;;;;5084764;28;20186;-75
2022/08/10 08:20:53;;;;;;;8.48;4.40;;;28.70;99.90;;;;;;5065182;28;20183;-75
2022/08/10 08:23:22;;;;;;;12.07;5.25;;;28.70;99.90;;;;;;5072059;28;20216;-76
2022/08/10 08:25:49;;;;;;;7.85;4.50;;;28.80;99.90;;;;;;5049488;28;20198;-76
2022/08/10 08:28:17;;;;;;;6.60;4.50;;;28.90;99.90;;;;;;5069426;28;20195;-76
2022/08/10 08:30:46;;;;;;;14.57;4.63;;;28.90;99.90;;;;;;5071729;28;20183;-77
2022/08/10 08:33:16;;;;;;;6.68;4.90;;;29.10;99.90;;;;;;5071791;28;20210;-76
2022/08/10 08:35:44;;;;;;;8.02;5.15;;;29.10;99.90;;;;;;5072783;28;20179;-78
2022/08/10 08:38:13;;;;;;;9.40;5.28;;;29.10;99.90;;;;;;5055828;28;20210;-75
2022/08/10 08:40:53;;;;;;;8.50;4.53;;;28.90;99.90;;;;;;5071658;28;20251;-76
2022/08/10 08:43:38;;;;;;;8.45;4.75;;;28.90;99.90;;;;;;5066154;28;20337;-76
2022/08/10 08:46:54;;;;;;;10.38;5.07;;;29.00;99.90;;;;;;5072207;28;20174;-76
2022/08/10 08:49:53;;;;;;;10.30;5.05;;;29.30;99.90;;;;;;5073813;28;20186;-76
2022/08/10 08:53:16;;;;;;;10.30;5.00;;;29.40;99.90;;;;;;5069987;28;20236;-76
2022/08/10 08:56:08;;;;;;;8.63;5.20;;;29.40;99.90;;;;;;5021992;28;20207;-75
2022/08/10 08:59:48;;;;;;;9.65;5.22;;;29.30;99.90;;;;;;5069739;28;20187;-76
2022/08/10 09:02:55;;;;;;;11.38;5.25;;;29.20;99.90;;;;;;4988446;28;20251;-76
2022/08/10 09:05:58;;;;;;;11.90;5.47;;;29.20;99.90;;;;;;5055158;28;20634;-75
2022/08/10 09:09:10;;;;;;;14.43;6.13;;;29.30;99.90;;;;;;5068161;28;20243;-76
2022/08/10 09:12:29;;;;;;;12.15;5.82;;;29.20;99.90;;;;;;5069122;28;20182;-76
2022/08/10 09:15:36;;;;;;;9.82;6.05;;;29.30;99.90;;;;;;5066335;28;20191;-76
2022/08/10 09:18:15;;;;;;;9.93;5.78;;;29.50;99.90;;;;;;5066705;28;20220;-76
2022/08/10 09:21:25;;;;;;;15.43;5.40;;;29.50;99.90;;;;;;5064175;28;20178;-76
2022/08/10 09:24:13;;;;;;;15.48;5.47;;;29.50;99.90;;;;;;5053329;28;20681;-76
2022/08/10 09:26:52;;;;;;;13.10;5.30;;;29.40;99.90;;;;;;5072919;28;20255;-75
2022/08/10 09:29:31;;;;;;;16.50;5.72;;;29.60;99.90;;;;;;5069799;28;20217;-77
2022/08/10 09:32:17;;;;;;;12.13;5.28;;;29.90;99.90;;;;;;5070214;28;20202;-77
2022/08/10 09:35:17;;;;;;;16.17;5.57;;;30.10;99.90;;;;;;5071339;28;20183;-76
2022/08/10 09:37:47;;;;;;;14.10;5.53;;;30.10;99.90;;;;;;5050767;28;20201;-77
2022/08/10 09:40:23;;;;;;;10.82;5.40;;;30.00;99.90;;;;;;5069462;28;20195;-77
2022/08/10 09:43:35;;;;;;;11.88;5.53;;;29.90;99.90;;;;;;5064779;28;20185;-76
2022/08/10 09:46:35;;;;;;;13.23;5.97;;;29.70;99.90;;;;;;5042966;28;20194;-77
2022/08/10 09:49:36;;;;;;;11.50;5.45;;;29.70;99.90;;;;;;5079432;28;20240;-76
2022/08/10 09:52:41;;;;;;;14.27;5.63;;;29.80;99.90;;;;;;5051029;28;20206;-77
2022/08/10 09:55:49;;;;;;;12.00;6.07;;;29.70;99.90;;;;;;5061782;28;20190;-75
2022/08/10 09:58:28;;;;;;;14.35;5.75;;;29.50;99.90;;;;;;5067849;28;20274;-75
2022/08/10 10:01:26;;;;;;;9.25;6.03;;;29.40;99.90;;;;;;5056016;28;20194;-76
2022/08/10 10:04:39;;;;;;;10.13;6.28;;;29.40;99.90;;;;;;5047558;28;20214;-75
2022/08/10 10:07:13;;;;;;;10.00;5.75;;;29.30;99.90;;;;;;5065687;28;20244;-75
2022/08/10 10:09:58;;;;;;;15.07;5.97;;;29.30;99.90;;;;;;5069538;28;20186;-76
2022/08/10 10:12:50;;;;;;;10.60;5.78;;;29.30;99.90;;;;;;5052254;28;20639;-74
2022/08/10 10:15:34;;;;;;;12.05;6.22;;;29.20;99.90;;;;;;5056475;28;20187;-76
2022/08/10 10:18:23;;;;;;;12.00;5.68;;;29.20;99.90;;;;;;5062835;28;20188;-75
2022/08/10 10:21:08;;;;;;;12.55;5.82;;;29.20;99.90;;;;;;5062743;28;20198;-75
2022/08/10 10:24:02;;;;;;;9.05;6.00;;;29.10;99.90;;;;;;5049436;28;20186;-75
2022/08/10 10:26:55;;;;;;;13.73;5.97;;;29.10;99.90;;;;;;5069154;28;20190;-75
2022/08/10 10:29:49;;;;;;;17.52;6.53;;;29.20;99.90;;;;;;5062932;28;20183;-75
2022/08/10 10:32:44;;;;;;;13.60;6.53;;;29.10;99.90;;;;;;5066731;28;20191;-74
2022/08/10 10:35:22;;;;;;;11.70;6.30;;;29.10;99.90;;;;;;5061125;28;20180;-75
2022/08/10 10:37:54;;;;;;;12.73;6.22;;;29.10;99.90;;;;;;5067195;28;20217;-76
2022/08/10 10:40:26;;;;;;;12.80;6.30;;;29.20;99.90;;;;;;5064961;28;20188;-75
2022/08/10 10:43:48;;;;;;;12.25;6.30;;;29.30;99.90;;;;;;5080823;28;20281;-76
2022/08/10 10:46:42;;;;;;;13.00;6.40;;;29.50;99.90;;;;;;5052805;28;20225;-76
2022/08/10 10:49:57;;;;;;;13.27;5.82;;;29.50;99.90;;;;;;5065327;28;20195;-76
2022/08/10 10:52:55;;;;;;;11.27;6.70;;;29.40;99.90;;;;;;5058804;28;20215;-76
2022/08/10 10:55:48;;;;;;;15.00;6.85;;;29.30;99.90;;;;;;5042506;28;20544;-76
2022/08/10 10:58:50;;;;;;;12.65;6.03;;;29.10;99.90;;;;;;5069803;28;20187;-76
2022/08/10 11:01:38;;;;;;;11.43;6.55;;;29.10;99.90;;;;;;5068544;28;20201;-75
2022/08/10 11:04:34;;;;;;;10.82;6.38;;;29.10;99.90;;;;;;5066759;28;20191;-76
2022/08/10 11:07:02;;;;;;;10.95;5.80;;;29.10;99.90;;;;;;5056035;28;20295;-76
2022/08/10 11:10:00;;;;;;;19.15;7.57;;;29.10;99.90;;;;;;5066813;28;20711;-77
2022/08/10 11:13:05;;;;;;;10.02;6.90;;;29.20;99.90;;;;;;5063270;28;20260;-76
2022/08/10 11:15:47;;;;;;;10.07;7.18;;;29.10;99.90;;;;;;5025085;28;20612;-76
2022/08/10 11:18:33;;;;;;;16.17;8.02;;;29.10;99.90;;;;;;5085271;28;20187;-76
2022/08/10 11:21:42;;;;;;;11.52;6.70;;;29.10;99.90;;;;;;5062287;28;20273;-77
2022/08/10 11:24:45;;;;;;;14.35;6.65;;;29.10;99.90;;;;;;5061613;28;20171;-77
2022/08/10 11:27:37;;;;;;;12.93;6.72;;;29.10;99.90;;;;;;5082911;28;20706;-76
2022/08/10 11:30:12;;;;;;;17.35;7.10;;;29.40;99.90;;;;;;5056188;28;20213;-77
2022/08/10 11:33:12;;;;;;;11.60;6.15;;;29.30;99.90;;;;;;5068217;28;20243;-75
2022/08/10 11:35:55;;;;;;;11.05;6.32;;;29.20;99.90;;;;;;5064702;28;20210;-75
2022/08/10 11:38:45;;;;;;;10.02;6.15;;;29.30;99.90;;;;;;5072700;28;20195;-75
2022/08/10 11:41:36;;;;;;;12.18;6.90;;;29.30;99.90;;;;;;5058781;28;20193;-76
2022/08/10 11:44:39;;;;;;;13.98;6.55;;;29.20;99.90;;;;;;5066189;28;20190;-76
2022/08/10 11:47:19;;;;;;;12.73;6.90;;;29.10;99.90;;;;;;5060582;28;20226;-76
2022/08/10 11:49:52;;;;;;;10.13;6.55;;;29.10;99.90;;;;;;5051922;28;20198;-76
2022/08/10 11:53:08;;;;;;;11.85;6.70;;;29.10;99.90;;;;;;5068421;28;20270;-75
2022/08/10 11:55:35;;;;;;;10.35;6.15;;;29.10;99.90;;;;;;5057387;28;20283;-76
2022/08/10 12:01:01;;;;;;;10.55;5.90;;;28.90;99.90;;;;;;5068980;28;20185;-76
2022/08/10 12:03:39;;;;;;;11.13;6.40;;;28.90;99.90;;;;;;5084288;28;20214;-76
2022/08/10 12:06:12;;;;;;;8.85;6.38;;;28.90;99.90;;;;;;5064392;28;20187;-76
2022/08/10 12:08:47;;;;;;;13.85;6.60;;;28.90;99.90;;;;;;5056098;28;20269;-76
2022/08/10 12:11:25;;;;;;;12.63;6.07;;;28.90;99.90;;;;;;5057193;28;20179;-75
2022/08/10 12:14:07;;;;;;;12.90;6.80;;;29.00;99.90;;;;;;5049621;28;20190;-76
2022/08/10 12:16:44;;;;;;;13.50;6.28;;;28.90;99.90;;;;;;5048687;28;20878;-76
2022/08/10 12:19:25;;;;;;;13.18;6.30;;;29.10;99.90;;;;;;5065333;28;20664;-76
2022/08/10 12:22:05;;;;;;;13.25;6.53;;;29.20;99.90;;;;;;5047916;28;20182;-76
2022/08/10 12:24:48;;;;;;;9.15;5.75;;;29.30;99.90;;;;;;5068537;28;20186;-76
2022/08/10 12:27:49;;;;;;;13.90;6.40;;;29.20;99.90;;;;;;5047503;28;20194;-75
2022/08/10 12:30:28;;;;;;;13.85;6.68;;;29.10;99.90;;;;;;5041896;28;20247;-75
2022/08/10 12:33:17;;;;;;;13.55;6.53;;;29.10;99.90;;;;;;5066291;28;20226;-76
2022/08/10 12:36:13;;;;;;;15.88;6.25;;;29.20;99.90;;;;;;5062546;28;20273;-76
2022/08/10 12:39:15;;;;;;;13.15;6.57;;;29.30;99.90;;;;;;5040840;28;20183;-76
2022/08/10 12:42:05;;;;;;;11.52;5.53;;;29.20;99.90;;;;;;5064106;28;20228;-76
2022/08/10 12:45:01;;;;;;;15.25;6.85;;;29.40;99.90;;;;;;5060433;28;20179;-76
2022/08/10 12:47:59;;;;;;;15.18;6.07;;;29.70;99.90;;;;;;5068369;28;20189;-75
2022/08/10 12:50:56;;;;;;;18.60;6.25;;;29.90;99.90;;;;;;5037036;28;20209;-76
2022/08/10 12:53:35;;;;;;;13.88;5.85;;;29.90;99.90;;;;;;5033337;28;20222;-76
2022/08/10 12:56:05;;;;;;;13.77;6.32;;;30.00;99.90;;;;;;5065739;28;20190;-76
2022/08/10 12:58:38;;;;;;;13.15;5.90;;;29.90;99.90;;;;;;5063043;28;20187;-76
2022/08/10 13:01:08;;;;;;;13.07;6.57;;;29.70;99.90;;;;;;5042283;28;20887;-75
2022/08/10 13:03:38;;;;;;;13.23;6.57;;;29.60;99.90;;;;;;5057485;28;20206;-76
2022/08/10 13:06:08;;;;;;;11.77;6.25;;;29.70;99.90;;;;;;5064155;28;20980;-75
2022/08/10 13:11:33;;;;;;;14.85;6.35;;;29.70;99.90;;;;;;5065351;28;20273;-75
2022/08/10 13:14:39;;;;;;;12.00;6.25;;;29.70;99.90;;;;;;5065072;28;20187;-75
2022/08/10 13:17:10;;;;;;;15.27;6.60;;;29.70;99.90;;;;;;5044225;28;20197;-75
2022/08/10 13:19:46;;;;;;;21.00;6.45;;;29.60;99.90;;;;;;5073160;28;20206;-75
2022/08/10 13:22:16;;;;;;;12.43;6.25;;;29.50;99.90;;;;;;5071553;28;20650;-76
2022/08/10 13:24:49;;;;;;;13.80;5.85;;;29.60;99.90;;;;;;5071825;28;20228;-75
2022/08/10 13:27:33;;;;;;;19.70;6.18;;;29.60;99.90;;;;;;5092447;28;20182;-75
2022/08/10 13:30:08;;;;;;;11.90;6.07;;;29.70;99.90;;;;;;5052083;28;20278;-75
2022/08/10 13:32:38;;;;;;;13.27;6.15;;;29.80;99.90;;;;;;5058449;28;20210;-75
2022/08/10 13:35:17;;;;;;;17.52;6.65;;;29.70;99.90;;;;;;5070201;28;20175;-75
2022/08/10 13:37:47;;;;;;;17.65;6.10;;;29.70;99.90;;;;;;5066326;28;20214;-76